Time;durP1;ratioP1;P1;durP2;ratioP2;P2;SDS_P1;SDS_P2;PMS_P1;PMS_P2;Temp;Humidity;BMP_temperature;BMP_pressure;BME280_temperature;BME280_humidity;BME280_pressure;Samples;Min_cycle;Max_cycle;Signal;HPM_P1;HPM_P2
2022/05/06 00:09:18;;;;;;;3.97;2.43;;;;;;;;;;20946671;28;20306;-82
2022/05/06 00:19:19;;;;;;;4.83;2.30;;;;;;;;;;20962217;28;20567;-80
2022/05/06 00:29:21;;;;;;;3.73;1.87;;;;;;;;;;20945521;28;20217;-80
2022/05/06 00:39:22;;;;;;;4.03;2.80;;;15.10;99.90;;;;;;20944670;28;20209;-82
2022/05/06 00:49:25;;;;;;;4.93;2.87;;;;;;;;;;20976199;28;20259;-81
2022/05/06 00:59:26;;;;;;;7.47;2.60;;;;;;;;;;20975046;28;20243;-81
2022/05/06 01:09:28;;;;;;;4.10;2.43;;;;;;;;;;20975404;28;20621;-81
2022/05/06 01:19:30;;;;;;;4.20;2.47;;;;;;;;;;20997488;28;20221;-80
2022/05/06 01:29:32;;;;;;;4.97;2.60;;;;;;;;;;20973660;28;20287;-81
2022/05/06 01:39:35;;;;;;;4.67;2.20;;;;;;;;;;20956700;28;20213;-81
2022/05/06 01:49:39;;;;;;;3.83;2.60;;;;;;;;;;20973147;28;20241;-80
2022/05/06 01:59:42;;;;;;;4.20;2.27;;;;;;;;;;20939891;28;20221;-82
2022/05/06 02:09:52;;;;;;;4.23;2.73;;;;;;;;;;20956081;28;20232;-80
2022/05/06 02:19:59;;;;;;;2.50;1.80;;;;;;;;;;20973560;28;20224;-80
2022/05/06 02:40:41;;;;;;;3.90;2.00;;;15.10;99.90;;;;;;20969562;28;20213;-80
2022/05/06 02:50:44;;;;;;;2.83;2.17;;;;;;;;;;20945114;28;20362;-81
2022/05/06 03:00:47;;;;;;;3.47;1.90;;;;;;;;;;20970229;28;20197;-81
2022/05/06 03:10:49;;;;;;;2.90;1.57;;;;;;;;;;20968018;28;20278;-81
2022/05/06 03:20:53;;;;;;;2.07;1.40;;;;;;;;;;20959932;28;20295;-81
2022/05/06 03:30:55;;;;;;;3.23;1.57;;;;;;;;;;20950341;28;20290;-81
2022/05/06 03:41:07;;;;;;;3.77;1.63;;;;;;;;;;20967418;28;20298;-80
2022/05/06 03:51:22;;;;;;;2.07;1.47;;;;;;;;;;20965157;28;20262;-80
2022/05/06 04:01:29;;;;;;;2.30;1.30;;;;;;;;;;20981661;28;20213;-80
2022/05/06 04:11:31;;;;;;;3.10;1.43;;;;;;;;;;20987827;28;20282;-80
2022/05/06 04:32:00;;;;;;;2.27;1.20;;;;;;;;;;20977344;28;20237;-80
2022/05/06 04:42:02;;;;;;;2.03;1.37;;;;;;;;;;20977640;28;20569;-80
2022/05/06 04:52:09;;;;;;;2.37;1.40;;;;;;;;;;20960800;28;20233;-80
2022/05/06 05:02:11;;;;;;;2.17;1.40;;;;;;;;;;20959535;28;20641;-81
2022/05/06 05:12:14;;;;;;;2.30;1.20;;;;;;;;;;20958191;28;20233;-81
2022/05/06 05:22:20;;;;;;;2.97;1.40;;;;;;;;;;20942195;28;20281;-81
2022/05/06 05:32:25;;;;;;;1.70;1.23;;;;;;;;;;20940580;28;20225;-83
2022/05/06 05:42:27;;;;;;;3.53;1.30;;;;;;;;;;20665909;28;20219;-81
2022/05/06 05:52:31;;;;;;;2.10;1.20;;;;;;;;;;20743813;28;20236;-81
2022/05/06 06:02:33;;;;;;;2.57;1.20;;;;;;;;;;20715498;28;20212;-80
2022/05/06 06:12:36;;;;;;;1.90;1.27;;;;;;;;;;20481373;28;20229;-80
2022/05/06 06:22:38;;;;;;;1.23;0.80;;;;;;;;;;20570868;28;20322;-82
2022/05/06 06:32:42;;;;;;;2.97;0.90;;;;;;;;;;20600332;28;20232;-81
2022/05/06 06:42:48;;;;;;;1.97;1.10;;;;;;;;;;20615259;28;20216;-82
2022/05/06 06:53:18;;;;;;;1.60;1.00;;;;;;;;;;20570065;28;20305;-82
2022/05/06 07:03:20;;;;;;;3.13;1.40;;;15.70;99.90;;;;;;20601073;28;20213;-81
2022/05/06 07:13:22;;;;;;;1.90;1.07;;;;;;;;;;20475147;28;20230;-82
2022/05/06 07:23:24;;;;;;;1.53;0.93;;;;;;;;;;20496100;28;20691;-82
2022/05/06 07:33:26;;;;;;;1.20;0.80;;;;;;;;;;20545264;28;20323;-81
2022/05/06 07:43:28;;;;;;;1.70;0.97;;;;;;;;;;20564038;28;20217;-82
2022/05/06 07:53:29;;;;;;;2.23;1.40;;;;;;;;;;20499442;28;20233;-83
2022/05/06 08:14:12;;;;;;;2.87;1.30;;;;;;;;;;20642025;28;20240;-82
2022/05/06 08:24:22;;;;;;;2.03;1.23;;;;;;;;;;20559885;28;20227;-82
2022/05/06 08:34:24;;;;;;;3.33;1.50;;;;;;;;;;20642206;28;20240;-81
2022/05/06 08:54:47;;;;;;;2.87;1.47;;;;;;;;;;20610962;28;20262;-82
2022/05/06 09:04:48;;;;;;;3.10;1.20;;;;;;;;;;20722286;28;20287;-82
2022/05/06 09:25:35;;;;;;;2.40;1.40;;;;;;;;;;20601782;28;20217;-81
2022/05/06 09:35:40;;;;;;;2.37;1.40;;;;;;;;;;20622962;28;20627;-80
2022/05/06 09:45:44;;;;;;;2.30;1.30;;;;;;;;;;20983000;28;20263;-81
2022/05/06 09:55:46;;;;;;;2.47;1.00;;;;;;;;;;20973775;28;20214;-81
2022/05/06 10:05:48;;;;;;;1.60;0.90;;;20.30;99.90;;;;;;20895668;28;20216;-81
2022/05/06 10:15:51;;;;;;;1.73;0.90;;;;;;;;;;20550582;28;20253;-81
2022/05/06 10:25:54;;;;;;;2.90;1.10;;;;;;;;;;20574720;28;20216;-80
2022/05/06 10:35:56;;;;;;;1.97;0.80;;;;;;;;;;20650493;28;20220;-81
2022/05/06 10:45:59;;;;;;;1.63;0.60;;;;;;;;;;20584745;28;20570;-82
2022/05/06 10:56:01;;;;;;;2.03;0.60;;;;;;;;;;20751519;28;20227;-81
2022/05/06 11:06:03;;;;;;;1.10;0.60;;;;;;;;;;20611349;28;20231;-81
2022/05/06 11:16:06;;;;;;;2.93;0.40;;;20.90;99.90;;;;;;20763221;28;20291;-81
2022/05/06 11:26:09;;;;;;;0.97;0.60;;;;;;;;;;20631803;28;20288;-80
2022/05/06 11:36:14;;;;;;;1.07;0.70;;;;;;;;;;20651723;28;20228;-81
2022/05/06 11:56:43;;;;;;;0.80;0.40;;;;;;;;;;20658879;28;20218;-81
2022/05/06 12:06:50;;;;;;;1.17;0.63;;;;;;;;;;20575313;28;20225;-80
2022/05/06 12:16:56;;;;;;;2.77;0.50;;;22.10;99.30;;;;;;20978074;28;20217;-82
2022/05/06 12:26:57;;;;;;;2.03;0.73;;;;;;;;;;20962281;28;20276;-81
2022/05/06 12:37:16;;;;;;;0.80;0.50;;;23.30;93.40;;;;;;20977224;28;20192;-81
2022/05/06 12:57:41;;;;;;;0.50;0.30;;;;;;;;;;20976989;28;20273;-81
2022/05/06 13:07:43;;;;;;;1.63;0.60;;;;;;;;;;20995678;28;20209;-82
2022/05/06 13:17:45;;;;;;;2.07;0.50;;;;;;;;;;20975791;28;20598;-82
2022/05/06 13:27:47;;;;;;;0.80;0.40;;;;;;;;;;20974496;28;20290;-83
2022/05/06 13:37:50;;;;;;;0.68;0.40;;;;;;;;;;20959487;28;20277;-82
2022/05/06 13:47:52;;;;;;;0.98;0.50;;;;;;;;;;20960638;28;20239;-83
2022/05/06 14:08:18;;;;;;;0.43;0.40;;;;;;;;;;20724078;28;20640;-85
2022/05/06 14:18:26;;;;;;;0.75;0.55;;;;;;;;;;20865989;28;20260;-81
2022/05/06 14:28:28;;;;;;;1.13;0.70;;;;;;;;;;20725515;28;20229;-82
2022/05/06 14:38:30;;;;;;;1.00;0.40;;;;;;;;;;20698363;28;20250;-83
2022/05/06 14:48:32;;;;;;;1.33;0.50;;;;;;;;;;20622272;28;20230;-83
2022/05/06 14:58:34;;;;;;;1.40;0.68;;;;;;;;;;20616634;28;20223;-83
2022/05/06 15:08:36;;;;;;;1.00;0.50;;;;;;;;;;20566033;28;20226;-85
2022/05/06 15:28:58;;;;;;;1.60;0.40;;;;;;;;;;20564891;28;20226;-86
2022/05/06 15:39:00;;;;;;;0.80;0.50;;;;;;;;;;20576006;28;20281;-84
2022/05/06 15:49:02;;;;;;;0.47;0.40;;;;;;;;;;20547460;28;20227;-85
2022/05/06 15:59:06;;;;;;;2.42;0.40;;;;;;;;;;20619993;28;20219;-86
2022/05/06 16:09:08;;;;;;;1.25;0.60;;;;;;;;;;20646951;28;20298;-86
2022/05/06 16:19:10;;;;;;;0.30;0.30;;;;;;;;;;20630905;28;20245;-83
2022/05/06 16:29:12;;;;;;;2.65;0.50;;;;;;;;;;20690993;28;20235;-85
2022/05/06 16:39:17;;;;;;;1.08;0.50;;;;;;;;;;20688245;28;20293;-85
2022/05/06 16:49:19;;;;;;;1.30;0.40;;;;;;;;;;20705821;28;20230;-87
2022/05/06 16:59:20;;;;;;;0.50;0.45;;;;;;;;;;20665945;28;20777;-84
2022/05/06 17:09:25;;;;;;;1.35;0.43;;;;;;;;;;20702423;28;20267;-86
2022/05/06 17:19:30;;;;;;;1.33;0.47;;;;;;;;;;20616464;28;20683;-86
2022/05/06 17:29:44;;;;;;;1.15;0.50;;;;;;;;;;20739148;28;20260;-86
2022/05/06 17:39:50;;;;;;;2.47;1.10;;;;;;;;;;20986605;28;20232;-86
2022/05/06 18:10:37;;;;;;;0.43;0.40;;;;;;;;;;20852982;28;20701;-68
2022/05/06 18:20:39;;;;;;;2.15;0.50;;;;;;;;;;20858201;28;20307;-69
2022/05/06 18:30:41;;;;;;;1.23;0.43;;;;;;;;;;20838964;28;20261;-69
2022/05/06 18:40:44;;;;;;;1.58;0.77;;;21.80;97.20;;;;;;20844926;28;20217;-69
2022/05/06 18:50:47;;;;;;;1.00;0.40;;;;;;;;;;20817536;28;20223;-70
2022/05/06 19:00:49;;;;;;;1.20;0.68;;;;;;;;;;20832522;28;20291;-69
2022/05/06 19:10:50;;;;;;;0.70;0.60;;;;;;;;;;20797500;28;20213;-70
2022/05/06 19:20:52;;;;;;;1.30;0.50;;;;;;;;;;20792823;28;20279;-69
2022/05/06 19:31:13;;;;;;;1.05;0.50;;;;;;;;;;20798923;28;20276;-69
2022/05/06 19:41:33;;;;;;;0.95;0.40;;;;;;;;;;20800955;28;20266;-69
2022/05/06 20:01:56;;;;;;;0.60;0.40;;;;;;;;;;20796893;28;20225;-70
2022/05/06 20:11:58;;;;;;;0.90;0.50;;;;;;;;;;20810474;28;20246;-70
2022/05/06 20:22:00;;;;;;;1.00;0.40;;;;;;;;;;20752603;28;20243;-70
2022/05/06 20:32:03;;;;;;;3.20;0.70;;;20.30;99.90;;;;;;20785278;28;20221;-70
2022/05/06 20:42:06;;;;;;;1.50;0.60;;;;;;;;;;20764126;28;20225;-70
2022/05/06 20:52:08;;;;;;;3.27;0.70;;;;;;;;;;20759564;28;20218;-70
2022/05/06 21:02:12;;;;;;;0.90;0.40;;;;;;;;;;20823158;28;20224;-70
2022/05/06 21:22:35;;;;;;;0.80;0.50;;;;;;;;;;20823007;28;20273;-70
2022/05/06 21:32:38;;;;;;;1.37;0.70;;;19.60;99.90;;;;;;20791002;28;20256;-70
2022/05/06 21:42:40;;;;;;;2.33;0.83;;;19.40;99.90;;;;;;20807105;28;20209;-70
2022/05/06 21:52:42;;;;;;;1.63;0.53;;;;;;;;;;20773288;28;20774;-70
2022/05/06 22:02:44;;;;;;;2.20;0.50;;;;;;;;;;20725133;28;20221;-70
2022/05/06 22:12:46;;;;;;;1.07;0.60;;;;;;;;;;20691721;28;20300;-70
2022/05/06 22:22:47;;;;;;;1.90;0.50;;;;;;;;;;20691817;28;20567;-69
2022/05/06 22:53:30;;;;;;;0.73;0.50;;;;;;;;;;20818324;28;20221;-70
2022/05/06 23:03:33;;;;;;;0.80;0.50;;;;;;;;;;20818317;28;20210;-69
2022/05/06 23:13:35;;;;;;;0.93;0.50;;;;;;;;;;20801440;28;20696;-69
2022/05/06 23:23:37;;;;;;;1.40;0.80;;;;;;;;;;20783457;28;20220;-69
2022/05/06 23:33:41;;;;;;;0.90;0.53;;;;;;;;;;20816839;28;20251;-69
2022/05/06 23:43:43;;;;;;;1.03;0.60;;;;;;;;;;20798767;28;20265;-69
2022/05/06 23:53:45;;;;;;;0.93;0.53;;;;;;;;;;20780607;28;20227;-68
